Time;durP1;ratioP1;P1;durP2;ratioP2;P2;SDS_P1;SDS_P2;PMS_P1;PMS_P2;Temp;Humidity;BMP_temperature;BMP_pressure;BME280_temperature;BME280_humidity;BME280_pressure;Samples;Min_cycle;Max_cycle;Signal;HPM_P1;HPM_P2
2021/07/01 00:00:48;;;;;;;6.87;6.37;;;;;24.20;100266.00;;;;2059722;28;20257;-76
2021/07/01 00:01:53;;;;;;;7.43;6.13;;;;;24.10;100265.00;;;;2059870;28;20230;-76
2021/07/01 00:02:53;;;;;;;6.93;6.32;;;;;24.20;100272.00;;;;2059376;28;20616;-76
2021/07/01 00:03:53;;;;;;;7.93;6.70;;;;;24.10;100273.00;;;;2060272;28;20219;-76
2021/07/01 00:04:54;;;;;;;7.67;7.07;;;;;24.10;100275.00;;;;2061280;28;20243;-76
2021/07/01 00:05:54;;;;;;;7.47;6.83;;;;;24.10;100279.00;;;;2059681;28;20298;-76
2021/07/01 00:06:55;;;;;;;6.80;6.20;;;;;24.10;100272.00;;;;2061494;28;20365;-76
2021/07/01 00:07:55;;;;;;;7.60;6.90;;;;;24.10;100272.00;;;;2060734;28;20242;-76
2021/07/01 00:08:56;;;;;;;6.70;6.10;;;;;24.10;100265.00;;;;2051533;28;20219;-76
2021/07/01 00:09:56;;;;;;;6.47;5.87;;;;;24.10;100266.00;;;;2059756;28;20219;-76
2021/07/01 00:10:56;;;;;;;7.13;6.53;;;;;24.10;100264.00;;;;2060258;28;20219;-76
2021/07/01 00:11:59;;;;;;;6.93;6.43;;;;;24.10;100264.00;;;;2060579;28;20222;-76
2021/07/01 00:12:59;;;;;;;6.45;6.00;;;;;24.10;100270.00;;;;2060520;28;20223;-76
2021/07/01 00:13:59;;;;;;;6.70;6.20;;;;;24.10;100275.00;;;;2060555;28;20309;-76
2021/07/01 00:15:00;;;;;;;6.70;6.20;;;;;24.10;100273.00;;;;2060510;28;20211;-76
2021/07/01 00:16:00;;;;;;;7.53;6.93;;;;;24.10;100267.00;;;;2064119;28;20223;-76
2021/07/01 00:17:00;;;;;;;7.60;7.00;;;;;24.10;100262.00;;;;2056147;28;20219;-76
2021/07/01 00:18:01;;;;;;;6.90;6.40;;;;;24.20;100264.00;;;;2060564;28;20618;-76
2021/07/01 00:19:02;;;;;;;8.03;7.33;;;;;24.10;100261.00;;;;2060800;28;20294;-76
2021/07/01 00:20:03;;;;;;;7.20;6.60;;;;;24.10;100264.00;;;;2060562;28;20722;-76
2021/07/01 00:21:03;;;;;;;7.50;6.72;;;;;24.10;100269.00;;;;2059683;28;20226;-76
2021/07/01 00:22:04;;;;;;;7.20;6.60;;;;;24.10;100262.00;;;;2059793;28;20211;-76
2021/07/01 00:23:04;;;;;;;7.23;6.60;;;;;24.10;100265.00;;;;2035674;28;20616;-76
2021/07/01 00:24:05;;;;;;;6.93;6.33;;;;;24.10;100266.00;;;;2043664;28;20696;-76
2021/07/01 00:25:06;;;;;;;7.67;6.97;;;;;24.10;100256.00;;;;2060430;28;20753;-76
2021/07/01 00:26:07;;;;;;;6.93;6.38;;;;;24.10;100262.00;;;;2050945;28;20235;-75
2021/07/01 00:27:07;;;;;;;7.10;6.50;;;;;24.10;100267.00;;;;2053509;28;20207;-75
2021/07/01 00:28:07;;;;;;;8.03;7.47;;;;;24.10;100260.00;;;;2064761;28;20212;-75
2021/07/01 00:29:08;;;;;;;7.73;7.13;;;;;24.10;100272.00;;;;2057497;28;20345;-75
2021/07/01 00:30:09;;;;;;;7.33;6.73;;;;;24.10;100270.00;;;;2056064;28;20219;-75
2021/07/01 00:31:09;;;;;;;8.48;7.70;;;;;24.10;100269.00;;;;2060138;28;20215;-76
2021/07/01 00:32:10;;;;;;;7.40;6.77;;;;;24.10;100274.00;;;;2061034;28;20662;-76
2021/07/01 00:33:10;;;;;;;7.93;7.23;;;;;24.10;100267.00;;;;2051263;28;20236;-76
2021/07/01 00:34:10;;;;;;;7.70;7.00;;;;;24.10;100270.00;;;;2052285;28;20211;-76
2021/07/01 00:35:11;;;;;;;7.97;7.27;;;;;24.10;100268.00;;;;2063508;28;20219;-75
2021/07/01 00:36:11;;;;;;;7.30;6.70;;;;;24.10;100254.00;;;;2059694;28;20231;-76
2021/07/01 00:37:12;;;;;;;8.20;7.40;;;;;24.10;100275.00;;;;2051527;28;20244;-76
2021/07/01 00:38:12;;;;;;;7.77;7.17;;;;;24.10;100270.00;;;;2059752;28;20769;-76
2021/07/01 00:39:12;;;;;;;7.63;7.03;;;;;24.10;100277.00;;;;2060751;28;20574;-75
2021/07/01 00:40:13;;;;;;;7.20;6.60;;;;;24.10;100273.00;;;;2060936;28;20593;-76
2021/07/01 00:41:13;;;;;;;7.70;7.03;;;;;24.10;100276.00;;;;2068244;28;20704;-76
2021/07/01 00:42:14;;;;;;;8.00;7.40;;;;;24.10;100266.00;;;;2068113;28;20218;-75
2021/07/01 00:43:14;;;;;;;7.30;6.70;;;;;24.10;100264.00;;;;2060067;28;20306;-76
2021/07/01 00:44:14;;;;;;;7.40;6.80;;;;;24.10;100265.00;;;;2060118;28;20723;-76
2021/07/01 00:45:15;;;;;;;8.40;7.70;;;;;24.10;100276.00;;;;2060241;28;20331;-76
2021/07/01 00:46:15;;;;;;;7.70;7.00;;;;;24.10;100269.00;;;;2059523;28;20261;-76
2021/07/01 00:47:16;;;;;;;7.73;7.03;;;;;24.10;100269.00;;;;2052414;28;20217;-76
2021/07/01 00:48:16;;;;;;;7.63;7.13;;;;;24.10;100275.00;;;;2060386;28;20651;-76
2021/07/01 00:49:17;;;;;;;7.17;6.50;;;;;24.10;100273.00;;;;2052182;28;20287;-76
2021/07/01 00:50:17;;;;;;;8.27;7.57;;;;;24.10;100280.00;;;;2044178;28;20460;-76
2021/07/01 00:51:17;;;;;;;7.63;7.03;;;;;24.10;100264.00;;;;2051484;28;20204;-76
2021/07/01 00:52:18;;;;;;;8.27;7.30;;;;;24.10;100282.00;;;;2059471;28;20246;-76
2021/07/01 00:53:18;;;;;;;7.30;6.80;;;;;24.10;100283.00;;;;2051494;28;20266;-76
2021/07/01 00:54:19;;;;;;;7.63;7.03;;;;;24.10;100281.00;;;;2051313;28;20219;-76
2021/07/01 00:55:19;;;;;;;8.53;7.73;;;;;24.10;100275.00;;;;2059941;28;20838;-76
2021/07/01 00:56:20;;;;;;;8.00;7.27;;;;;24.10;100278.00;;;;2060430;28;20238;-76
2021/07/01 00:57:21;;;;;;;7.67;6.97;;;;;24.10;100277.00;;;;2060681;28;20618;-76
2021/07/01 00:58:22;;;;;;;8.32;7.43;;;;;24.10;100281.00;;;;2055002;28;20786;-76
2021/07/01 00:59:23;;;;;;;7.43;6.83;;;;;24.10;100283.00;;;;2049023;28;20220;-76
2021/07/01 01:01:23;;;;;;;7.20;6.70;;;;;24.10;100272.00;;;;2060184;28;20212;-76
2021/07/01 01:02:24;;;;;;;7.60;7.00;;;;;24.10;100276.00;;;;2060895;28;20266;-76
2021/07/01 01:03:24;;;;;;;6.87;6.37;;;;;24.10;100280.00;;;;2059926;28;20219;-76
2021/07/01 01:04:24;;;;;;;6.47;5.97;;;;;24.10;100278.00;;;;2059434;28;20234;-76
2021/07/01 01:05:25;;;;;;;6.73;6.23;;;;;24.10;100277.00;;;;2059948;28;20291;-76
2021/07/01 01:06:25;;;;;;;6.73;6.13;;;;;24.10;100273.00;;;;2059859;28;20219;-76
2021/07/01 01:07:26;;;;;;;7.30;6.60;;;;;24.10;100275.00;;;;2067445;28;20218;-76
2021/07/01 01:08:26;;;;;;;6.70;6.20;;;;;24.10;100273.00;;;;2059220;28;20216;-76
2021/07/01 01:09:26;;;;;;;7.27;6.57;;;;;24.10;100275.00;;;;2051882;28;20295;-76
2021/07/01 01:10:27;;;;;;;6.87;6.27;;;;;24.10;100284.00;;;;2059767;28;20242;-76
2021/07/01 01:11:27;;;;;;;7.60;7.00;;;;;24.10;100274.00;;;;2055445;28;20212;-76
2021/07/01 01:12:28;;;;;;;6.80;6.30;;;;;24.10;100283.00;;;;2055560;28;20212;-76
2021/07/01 01:13:28;;;;;;;7.40;6.80;;;;;24.10;100273.00;;;;2059942;28;20248;-76
2021/07/01 01:14:28;;;;;;;6.90;6.30;;;;;24.10;100271.00;;;;2059106;28;20242;-76
2021/07/01 01:15:29;;;;;;;6.40;6.00;;;;;24.10;100271.00;;;;2051304;28;20270;-76
2021/07/01 01:16:29;;;;;;;6.00;5.53;;;;;24.10;100269.00;;;;2059335;28;20654;-76
2021/07/01 01:17:29;;;;;;;7.00;6.40;;;;;24.10;100271.00;;;;2060011;28;20238;-76
2021/07/01 01:18:30;;;;;;;6.47;5.97;;;;;24.10;100267.00;;;;2060030;28;20612;-76
2021/07/01 01:19:30;;;;;;;6.63;6.03;;;;;24.10;100254.00;;;;2059991;28;20729;-76
2021/07/01 01:20:31;;;;;;;6.53;6.03;;;;;24.10;100267.00;;;;2051897;28;20307;-76
2021/07/01 01:21:31;;;;;;;7.20;6.60;;;;;24.10;100273.00;;;;2043680;28;20720;-76
2021/07/01 01:22:31;;;;;;;6.70;6.10;;;;;24.10;100269.00;;;;2036274;29;20222;-76
2021/07/01 01:23:32;;;;;;;7.00;6.50;;;;;24.10;100270.00;;;;2052018;28;20314;-76
2021/07/01 01:24:34;;;;;;;6.40;5.90;;;;;24.10;100274.00;;;;2060612;28;20227;-76
2021/07/01 01:25:34;;;;;;;6.70;6.20;;;;;24.10;100272.00;;;;2059839;28;20670;-76
2021/07/01 01:26:35;;;;;;;5.93;5.53;;;;;24.10;100272.00;;;;2059770;28;20215;-76
2021/07/01 01:27:35;;;;;;;5.97;5.47;;;;;24.10;100268.00;;;;2066866;28;20213;-76
2021/07/01 01:28:36;;;;;;;6.63;6.13;;;;;24.10;100252.00;;;;2066554;28;20214;-76
2021/07/01 01:29:36;;;;;;;6.83;6.33;;;;;24.10;100267.00;;;;2064360;28;20300;-76
2021/07/01 01:30:38;;;;;;;6.57;6.07;;;;;24.10;100267.00;;;;2059774;28;20208;-77
2021/07/01 01:31:39;;;;;;;6.70;6.20;;;;;24.10;100266.00;;;;2060692;28;20686;-76
2021/07/01 01:32:39;;;;;;;6.73;6.13;;;;;23.90;100258.00;;;;2060228;28;20225;-76
2021/07/01 01:33:40;;;;;;;6.37;5.77;;;;;24.10;100266.00;;;;2051323;28;20302;-76
2021/07/01 01:34:41;;;;;;;6.30;5.80;;;;;24.10;100257.00;;;;2043453;28;20460;-76
2021/07/01 01:35:41;;;;;;;6.13;5.73;;;;;24.10;100262.00;;;;2059159;28;20218;-76
2021/07/01 01:36:41;;;;;;;6.63;6.13;;;;;24.10;100261.00;;;;2051195;28;20225;-76
2021/07/01 01:37:42;;;;;;;6.90;6.30;;;;;24.10;100261.00;;;;2051392;28;20220;-76
2021/07/01 01:38:42;;;;;;;6.53;5.93;;;;;24.10;100258.00;;;;2060507;28;20216;-76
2021/07/01 01:39:47;;;;;;;6.70;6.10;;;;;24.10;100255.00;;;;2059621;28;20223;-76
2021/07/01 01:40:48;;;;;;;6.30;5.80;;;;;24.10;100258.00;;;;2059822;28;20578;-75
2021/07/01 01:41:48;;;;;;;5.72;5.32;;;;;24.10;100253.00;;;;2067021;28;20226;-76
2021/07/01 01:42:49;;;;;;;5.97;5.40;;;;;24.10;100259.00;;;;2059415;28;20223;-76
2021/07/01 01:43:49;;;;;;;6.60;6.10;;;;;24.10;100256.00;;;;2059787;28;20281;-76
2021/07/01 01:44:49;;;;;;;6.60;6.00;;;;;24.10;100256.00;;;;2063349;28;20218;-75
2021/07/01 01:45:50;;;;;;;5.77;5.37;;;;;24.10;100259.00;;;;2063327;28;20215;-76
2021/07/01 01:46:50;;;;;;;6.97;6.37;;;;;24.10;100255.00;;;;2059983;28;20227;-76
2021/07/01 01:47:51;;;;;;;6.93;6.33;;;;;24.10;100249.00;;;;2060374;28;20298;-75
2021/07/01 01:48:52;;;;;;;7.13;5.90;;;;;24.10;100178.00;;;;2059802;28;20269;-76
2021/07/01 01:49:52;;;;;;;6.40;5.85;;;;;24.10;100249.00;;;;2059333;28;20386;-76
2021/07/01 01:50:53;;;;;;;7.20;6.50;;;;;24.10;100252.00;;;;2058861;28;20653;-75
2021/07/01 01:51:53;;;;;;;6.90;6.23;;;;;24.10;100253.00;;;;2050934;28;20671;-76
2021/07/01 01:52:53;;;;;;;6.43;5.80;;;;;24.00;100261.00;;;;2050975;28;20270;-76
2021/07/01 01:53:54;;;;;;;7.23;6.33;;;;;24.00;100259.00;;;;2051086;28;20224;-76
2021/07/01 01:54:55;;;;;;;6.60;5.95;;;;;24.10;100253.00;;;;2059704;28;20219;-76
2021/07/01 01:55:55;;;;;;;6.40;5.80;;;;;24.10;100256.00;;;;2062659;28;20211;-76
2021/07/01 01:56:55;;;;;;;6.30;5.80;;;;;24.10;100265.00;;;;2063475;28;20301;-76
2021/07/01 01:57:56;;;;;;;7.00;6.43;;;;;24.10;100247.00;;;;2060225;28;20243;-76
2021/07/01 01:58:57;;;;;;;6.00;5.50;;;;;24.10;100256.00;;;;2049203;28;20224;-76
2021/07/01 01:59:57;;;;;;;6.60;6.10;;;;;24.10;100256.00;;;;2046946;28;20781;-76
2021/07/01 02:00:57;;;;;;;6.53;6.03;;;;;24.00;100256.00;;;;2059494;28;20215;-76
2021/07/01 02:01:58;;;;;;;6.50;6.00;;;;;24.00;100252.00;;;;2059601;28;20630;-76
2021/07/01 02:02:59;;;;;;;7.57;6.97;;;;;24.00;100256.00;;;;2062597;28;20624;-76
2021/07/01 02:03:59;;;;;;;7.10;6.40;;;;;24.10;100259.00;;;;2058807;28;20964;-76
2021/07/01 02:05:00;;;;;;;7.00;6.43;;;;;24.10;100252.00;;;;2058812;28;20290;-76
2021/07/01 02:06:00;;;;;;;6.70;6.13;;;;;24.00;100245.00;;;;2059013;28;20286;-76
2021/07/01 02:07:00;;;;;;;6.83;6.23;;;;;24.00;100253.00;;;;2059928;28;20223;-76
2021/07/01 02:08:01;;;;;;;6.73;6.13;;;;;24.00;100248.00;;;;2060343;28;20267;-76
2021/07/01 02:09:02;;;;;;;5.83;5.33;;;;;24.00;100259.00;;;;2059577;28;20235;-76
2021/07/01 02:10:12;;;;;;;5.75;5.30;;;;;24.10;100237.00;;;;2051504;28;20224;-76
2021/07/01 02:11:12;;;;;;;6.55;6.15;;;;;24.00;100242.00;;;;2044195;28;20220;-76
2021/07/01 02:12:13;;;;;;;6.13;5.73;;;;;24.00;100243.00;;;;2051218;28;20219;-76
2021/07/01 02:13:13;;;;;;;5.80;5.40;;;;;24.10;100243.00;;;;2057823;28;20215;-76
2021/07/01 02:14:14;;;;;;;6.77;6.27;;;;;24.00;100245.00;;;;2050905;28;20251;-76
2021/07/01 02:15:16;;;;;;;6.15;5.75;;;;;24.00;100242.00;;;;2059684;28;20294;-76
2021/07/01 02:16:17;;;;;;;7.00;6.40;;;;;24.00;100241.00;;;;2060217;28;20724;-76
2021/07/01 02:17:17;;;;;;;5.80;5.40;;;;;24.00;100245.00;;;;2060235;28;20298;-76
2021/07/01 02:18:17;;;;;;;6.70;6.10;;;;;24.00;100249.00;;;;2059185;28;20250;-76
2021/07/01 02:19:18;;;;;;;6.07;5.67;;;;;24.00;100255.00;;;;2058503;28;20211;-76
2021/07/01 02:20:19;;;;;;;6.60;6.00;;;;;24.00;100240.00;;;;2059293;28;20290;-76
2021/07/01 02:21:20;;;;;;;6.65;6.10;;;;;24.00;100253.00;;;;2059421;28;20219;-76
2021/07/01 02:22:20;;;;;;;6.37;5.73;;;;;24.00;100251.00;;;;2059114;28;20219;-76
2021/07/01 02:23:21;;;;;;;6.37;5.77;;;;;24.00;100253.00;;;;2058419;28;20227;-76
2021/07/01 02:24:21;;;;;;;5.90;5.50;;;;;24.00;100248.00;;;;2058749;28;20350;-76
2021/07/01 02:25:21;;;;;;;6.77;6.27;;;;;24.00;100252.00;;;;2058936;28;20224;-76
2021/07/01 02:26:21;;;;;;;6.40;5.90;;;;;24.00;100252.00;;;;2059307;28;20235;-76
2021/07/01 02:27:22;;;;;;;5.93;5.43;;;;;24.00;100253.00;;;;2061102;28;20218;-76
2021/07/01 02:28:22;;;;;;;6.50;6.00;;;;;24.00;100242.00;;;;2053268;28;20218;-76
2021/07/01 02:29:23;;;;;;;6.23;5.70;;;;;24.00;100216.00;;;;2059576;28;21151;-76
2021/07/01 02:30:23;;;;;;;6.20;5.80;;;;;24.00;100250.00;;;;2059315;28;20211;-76
2021/07/01 02:31:23;;;;;;;7.30;6.63;;;;;24.00;100249.00;;;;2058029;28;20601;-72
2021/07/01 02:32:24;;;;;;;6.73;6.23;;;;;24.00;100257.00;;;;2058912;28;20616;-74
2021/07/01 02:33:24;;;;;;;6.23;5.73;;;;;24.00;100250.00;;;;2050441;28;20638;-75
2021/07/01 02:34:25;;;;;;;6.53;6.00;;;;;24.00;100246.00;;;;2050760;28;20606;-75
2021/07/01 02:35:25;;;;;;;6.70;6.10;;;;;24.00;100251.00;;;;2059242;28;20255;-75
2021/07/01 02:36:26;;;;;;;6.30;5.80;;;;;24.00;100253.00;;;;2059546;28;20683;-75
2021/07/01 02:37:26;;;;;;;6.47;5.80;;;;;24.00;100251.00;;;;2060051;28;20212;-75
2021/07/01 02:38:26;;;;;;;6.33;5.73;;;;;24.00;100249.00;;;;2059438;28;20273;-76
2021/07/01 02:39:27;;;;;;;6.93;6.33;;;;;24.00;100251.00;;;;2059132;28;20211;-76
2021/07/01 02:40:27;;;;;;;6.53;6.03;;;;;24.00;100256.00;;;;2059109;28;20602;-75
2021/07/01 02:41:27;;;;;;;6.97;6.43;;;;;24.00;100256.00;;;;2058724;28;20655;-76
2021/07/01 02:42:28;;;;;;;7.00;6.20;;;;;24.00;100249.00;;;;2058587;28;20222;-75
2021/07/01 02:43:28;;;;;;;6.57;5.97;;;;;24.00;100254.00;;;;2059201;28;20242;-75
2021/07/01 02:44:28;;;;;;;7.17;6.50;;;;;24.00;100245.00;;;;2059939;28;20211;-75
2021/07/01 02:45:29;;;;;;;5.90;5.40;;;;;24.00;100248.00;;;;2059191;28;20266;-76
2021/07/01 02:46:30;;;;;;;6.20;5.70;;;;;24.00;100229.00;;;;2059613;28;20212;-76
2021/07/01 02:47:30;;;;;;;6.57;5.90;;;;;24.00;100247.00;;;;2059463;28;20215;-76
2021/07/01 02:48:30;;;;;;;6.40;5.87;;;;;24.00;100253.00;;;;2050614;28;20455;-76
2021/07/01 02:49:31;;;;;;;6.43;5.93;;;;;24.00;100250.00;;;;2058548;28;20211;-76
2021/07/01 02:50:31;;;;;;;6.70;6.17;;;;;24.00;100250.00;;;;2050421;28;20223;-76
2021/07/01 02:51:32;;;;;;;6.60;6.00;;;;;24.00;100262.00;;;;2050746;28;20300;-76
2021/07/01 02:52:32;;;;;;;5.87;5.47;;;;;24.00;100262.00;;;;2059237;28;20706;-76
2021/07/01 02:53:32;;;;;;;7.60;6.27;;;;;24.00;100252.00;;;;2059282;28;20718;-75
2021/07/01 02:54:32;;;;;;;5.90;5.27;;;;;24.00;100259.00;;;;2059167;28;20674;-76
2021/07/01 02:55:34;;;;;;;6.70;6.10;;;;;24.00;100262.00;;;;2060010;28;20640;-75
2021/07/01 02:56:40;;;;;;;6.28;5.70;;;;;24.00;100263.00;;;;2059769;28;20694;-76
2021/07/01 02:57:41;;;;;;;5.82;5.30;;;;;24.00;100264.00;;;;2063478;28;20217;-76
2021/07/01 02:58:41;;;;;;;6.00;5.50;;;;;24.00;100268.00;;;;2067162;28;20590;-76
2021/07/01 02:59:41;;;;;;;6.80;6.30;;;;;24.00;100268.00;;;;2065642;28;20231;-76
2021/07/01 03:00:42;;;;;;;6.60;6.00;;;;;24.00;100270.00;;;;2059111;28;20230;-76
2021/07/01 03:01:43;;;;;;;6.90;5.97;;;;;24.00;100268.00;;;;2059255;28;20218;-76
2021/07/01 03:02:43;;;;;;;6.22;5.72;;;;;24.00;100276.00;;;;2050202;28;20258;-76
2021/07/01 03:03:43;;;;;;;6.50;5.90;;;;;24.00;100264.00;;;;2042701;28;20635;-76
2021/07/01 03:04:44;;;;;;;5.80;5.40;;;;;24.00;100263.00;;;;2058674;28;20219;-76
2021/07/01 03:05:44;;;;;;;6.00;5.50;;;;;24.00;100258.00;;;;2043061;28;20217;-76
2021/07/01 03:06:44;;;;;;;7.13;5.73;;;;;24.00;100241.00;;;;2051279;28;20224;-76
2021/07/01 03:07:45;;;;;;;6.53;5.77;;;;;24.00;100260.00;;;;2059283;28;20226;-76
2021/07/01 03:08:45;;;;;;;5.77;5.30;;;;;24.00;100256.00;;;;2051113;28;20246;-76
2021/07/01 03:09:46;;;;;;;6.17;5.60;;;;;24.00;100253.00;;;;2058218;28;20234;-76
2021/07/01 03:10:46;;;;;;;5.63;5.23;;;;;24.00;100256.00;;;;2058958;28;20211;-76
2021/07/01 03:11:46;;;;;;;6.20;5.60;;;;;24.00;100252.00;;;;2059150;28;20773;-76
2021/07/01 03:12:47;;;;;;;5.97;5.40;;;;;24.00;100260.00;;;;2059019;28;20749;-76
2021/07/01 03:13:47;;;;;;;5.33;4.93;;;;;24.00;100257.00;;;;2059774;28;20944;-76
2021/07/01 03:14:47;;;;;;;5.57;5.07;;;;;24.00;100259.00;;;;2059159;28;20322;-76
2021/07/01 03:15:48;;;;;;;5.70;5.20;;;;;24.00;100235.00;;;;2059166;28;20213;-76
2021/07/01 03:16:48;;;;;;;5.90;5.40;;;;;24.00;100254.00;;;;2059291;28;20297;-76
2021/07/01 03:17:48;;;;;;;5.27;4.80;;;;;24.00;100247.00;;;;2058676;28;20357;-76
2021/07/01 03:18:49;;;;;;;5.83;5.40;;;;;24.00;100253.00;;;;2050461;28;20216;-75
2021/07/01 03:19:50;;;;;;;5.37;4.97;;;;;24.00;100257.00;;;;2042446;28;21040;-76
2021/07/01 03:20:50;;;;;;;5.80;5.20;;;;;24.00;100261.00;;;;2050159;28;20645;-76
2021/07/01 03:21:50;;;;;;;5.80;5.30;;;;;24.00;100260.00;;;;2059065;28;20222;-76
2021/07/01 03:22:51;;;;;;;5.17;4.77;;;;;24.00;100250.00;;;;2059017;28;20234;-76
2021/07/01 03:23:51;;;;;;;6.03;5.20;;;;;23.90;100246.00;;;;2059088;28;20226;-76
2021/07/01 03:24:51;;;;;;;6.20;5.60;;;;;24.00;100255.00;;;;2058934;28;20310;-76
2021/07/01 03:25:52;;;;;;;6.10;5.43;;;;;24.00;100256.00;;;;2059085;28;20250;-76
2021/07/01 03:26:53;;;;;;;10.60;5.30;;;;;24.00;100253.00;;;;2060253;28;20219;-76
2021/07/01 03:27:53;;;;;;;5.45;4.88;;;;;24.00;100263.00;;;;2061111;28;20219;-76
2021/07/01 03:28:53;;;;;;;5.30;4.77;;;;;24.00;100255.00;;;;2059655;28;20234;-76
2021/07/01 03:29:54;;;;;;;5.80;5.40;;;;;24.00;100255.00;;;;2065851;28;20322;-76
2021/07/01 03:30:54;;;;;;;5.17;4.77;;;;;24.00;100254.00;;;;2058286;28;20237;-76
2021/07/01 03:31:55;;;;;;;5.30;4.87;;;;;24.00;100262.00;;;;2041821;28;20220;-76
2021/07/01 03:32:55;;;;;;;5.63;5.13;;;;;24.00;100258.00;;;;2050084;28;20227;-76
2021/07/01 03:33:55;;;;;;;6.00;5.40;;;;;24.00;100266.00;;;;2059007;28;20708;-76
2021/07/01 03:34:55;;;;;;;5.27;4.87;;;;;24.00;100255.00;;;;2059245;28;20681;-76
2021/07/01 03:35:56;;;;;;;5.57;5.07;;;;;24.00;100259.00;;;;2059150;28;20581;-76
2021/07/01 03:36:56;;;;;;;4.67;4.27;;;;;24.00;100254.00;;;;2043159;28;20285;-76
2021/07/01 03:37:57;;;;;;;5.53;5.13;;;;;24.00;100258.00;;;;2051027;28;20211;-76
2021/07/01 03:39:02;;;;;;;5.27;4.87;;;;;24.00;100257.00;;;;2059669;28;20267;-76
2021/07/01 03:40:04;;;;;;;4.93;4.53;;;;;24.00;100264.00;;;;2058183;28;20306;-76
2021/07/01 03:41:04;;;;;;;5.50;4.95;;;;;24.00;100261.00;;;;2057300;28;20681;-74
2021/07/01 03:42:05;;;;;;;4.83;4.43;;;;;24.00;100265.00;;;;2041978;28;20244;-75
2021/07/01 03:43:06;;;;;;;5.17;4.77;;;;;24.00;100263.00;;;;2042551;28;20573;-76
2021/07/01 03:44:10;;;;;;;4.77;4.33;;;;;24.00;100266.00;;;;2058543;28;20482;-75
2021/07/01 03:45:10;;;;;;;5.07;4.63;;;;;24.00;100266.00;;;;2058368;28;20213;-76
2021/07/01 03:46:13;;;;;;;5.03;4.60;;;;;24.00;100269.00;;;;2058273;28;20218;-76
2021/07/01 03:47:13;;;;;;;4.85;4.45;;;;;23.90;100253.00;;;;2059008;28;20290;-76
2021/07/01 03:48:13;;;;;;;4.93;4.57;;;;;23.90;100265.00;;;;2056592;28;20258;-76
2021/07/01 03:49:14;;;;;;;5.13;4.73;;;;;24.00;100277.00;;;;2051026;28;20294;-75
2021/07/01 03:50:14;;;;;;;4.83;4.33;;;;;23.90;100272.00;;;;2058621;28;20303;-76
2021/07/01 03:51:14;;;;;;;4.47;4.17;;;;;24.00;100272.00;;;;2058805;28;20686;-76
2021/07/01 03:52:15;;;;;;;4.50;4.20;;;;;23.90;100269.00;;;;2058984;28;20704;-76
2021/07/01 03:53:15;;;;;;;4.97;4.53;;;;;23.90;100276.00;;;;2049985;28;20677;-76
2021/07/01 03:54:16;;;;;;;4.73;4.33;;;;;24.00;100270.00;;;;2050059;28;20235;-76
2021/07/01 03:55:19;;;;;;;4.50;4.10;;;;;24.00;100275.00;;;;2059624;28;20583;-76
2021/07/01 03:56:19;;;;;;;5.05;4.55;;;;;23.90;100270.00;;;;2059809;28;20250;-77
2021/07/01 03:57:19;;;;;;;4.13;3.70;;;;;23.90;100267.00;;;;2063924;28;20885;-76
2021/07/01 03:58:20;;;;;;;4.77;4.27;;;;;23.90;100269.00;;;;2064076;28;20215;-76
2021/07/01 03:59:20;;;;;;;4.43;4.13;;;;;24.00;100268.00;;;;2060460;28;20289;-76
2021/07/01 04:00:21;;;;;;;4.40;4.00;;;;;23.90;100265.00;;;;2058744;28;20222;-76
2021/07/01 04:01:21;;;;;;;4.00;3.57;;;;;23.90;100267.00;;;;2059114;28;20216;-76
2021/07/01 04:02:21;;;;;;;4.13;3.73;;;;;23.90;100264.00;;;;2059715;28;20371;-76
2021/07/01 04:03:22;;;;;;;4.20;3.90;;;;;24.00;100270.00;;;;2058733;28;20229;-76
2021/07/01 04:04:22;;;;;;;4.80;4.17;;;;;23.90;100268.00;;;;2058637;28;20214;-75
2021/07/01 04:05:22;;;;;;;5.20;4.20;;;;;23.90;100262.00;;;;2058939;28;20206;-76
2021/07/01 04:06:22;;;;;;;4.00;3.70;;;;;23.90;100262.00;;;;2059015;28;20270;-76
2021/07/01 04:07:23;;;;;;;4.33;4.03;;;;;23.90;100263.00;;;;2059099;28;20298;-76
2021/07/01 04:08:23;;;;;;;5.40;4.90;;;;;23.90;100268.00;;;;2059674;28;20725;-76
2021/07/01 04:09:23;;;;;;;4.77;4.47;;;;;23.90;100262.00;;;;2059504;28;20682;-76
2021/07/01 04:10:24;;;;;;;4.60;4.20;;;;;23.90;100270.00;;;;2059418;28;20776;-76
2021/07/01 04:11:25;;;;;;;4.30;3.90;;;;;23.90;100272.00;;;;2059055;28;20637;-76
2021/07/01 04:12:25;;;;;;;4.68;4.15;;;;;23.90;100275.00;;;;2042014;28;20212;-77
2021/07/01 04:13:26;;;;;;;4.83;4.47;;;;;23.90;100251.00;;;;2049915;28;20245;-77
2021/07/01 04:14:26;;;;;;;4.13;3.73;;;;;23.90;100275.00;;;;2057729;28;20210;-77
2021/07/01 04:15:27;;;;;;;6.10;4.23;;;;;23.90;100267.00;;;;2058013;28;20768;-77
2021/07/01 04:16:27;;;;;;;4.27;3.87;;;;;23.90;100280.00;;;;2059318;28;20682;-76
2021/07/01 04:17:27;;;;;;;5.60;3.87;;;;;23.90;100273.00;;;;2059786;28;20219;-76
2021/07/01 04:18:28;;;;;;;6.23;3.97;;;;;23.90;100274.00;;;;2059064;28;20207;-76
2021/07/01 04:19:28;;;;;;;4.50;4.10;;;;;23.90;100282.00;;;;2050707;28;20224;-77
2021/07/01 04:20:28;;;;;;;5.77;3.87;;;;;23.80;100277.00;;;;2050398;28;20219;-76
2021/07/01 04:21:29;;;;;;;3.93;3.63;;;;;23.90;100267.00;;;;2042147;28;20213;-74
2021/07/01 04:22:29;;;;;;;3.73;3.43;;;;;23.90;100271.00;;;;2056523;28;22348;-76
2021/07/01 04:23:30;;;;;;;4.63;3.80;;;;;23.90;100269.00;;;;2058902;28;20238;-77
2021/07/01 04:24:30;;;;;;;4.03;3.43;;;;;23.90;100270.00;;;;2050360;28;20302;-76
2021/07/01 04:25:31;;;;;;;3.70;3.40;;;;;23.90;100268.00;;;;2047604;28;20722;-76
2021/07/01 04:26:31;;;;;;;3.77;3.47;;;;;23.90;100276.00;;;;2042922;28;20594;-77
2021/07/01 04:27:32;;;;;;;3.77;3.47;;;;;23.90;100270.00;;;;2045337;28;20497;-77
2021/07/01 04:28:32;;;;;;;3.47;3.20;;;;;23.90;100273.00;;;;2059860;28;20219;-77
2021/07/01 04:29:32;;;;;;;3.43;3.13;;;;;24.00;100265.00;;;;2062653;28;20218;-77
2021/07/01 04:30:33;;;;;;;3.97;3.53;;;;;24.00;100273.00;;;;2058873;28;20333;-77
2021/07/01 04:31:33;;;;;;;3.43;3.13;;;;;24.00;100287.00;;;;2050941;28;20309;-77
2021/07/01 04:32:34;;;;;;;3.47;3.27;;;;;24.00;100278.00;;;;2058560;28;20697;-77
2021/07/01 04:33:35;;;;;;;5.80;3.70;;;;;24.00;100272.00;;;;2058204;28;20725;-76
2021/07/01 04:34:35;;;;;;;4.17;3.07;;;;;24.00;100288.00;;;;2042352;28;20223;-76
2021/07/01 04:35:35;;;;;;;3.40;3.10;;;;;24.00;100275.00;;;;2042238;28;20753;-76
2021/07/01 04:36:36;;;;;;;4.10;3.77;;;;;24.00;100272.00;;;;2050061;28;20683;-77
2021/07/01 04:37:36;;;;;;;4.83;3.53;;;;;24.00;100266.00;;;;2058228;28;20636;-76
2021/07/01 04:38:36;;;;;;;4.13;3.60;;;;;24.00;100274.00;;;;2059614;28;20653;-77
2021/07/01 04:39:37;;;;;;;4.20;3.40;;;;;23.80;100275.00;;;;2058743;28;20235;-76
2021/07/01 04:40:37;;;;;;;5.17;3.90;;;;;24.00;100274.00;;;;2048462;28;20261;-76
2021/07/01 04:41:37;;;;;;;5.17;3.90;;;;;24.00;100273.00;;;;2067108;28;20212;-77
2021/07/01 04:42:38;;;;;;;4.60;3.70;;;;;24.00;100270.00;;;;2050811;28;20213;-76
2021/07/01 04:43:38;;;;;;;4.00;3.70;;;;;24.00;100277.00;;;;2051071;28;20675;-77
2021/07/01 04:44:39;;;;;;;4.00;3.70;;;;;24.00;100270.00;;;;2060252;28;20660;-77
2021/07/01 04:45:39;;;;;;;4.90;4.13;;;;;24.00;100262.00;;;;2060443;28;20955;-76
2021/07/01 04:46:39;;;;;;;4.30;3.90;;;;;24.00;100273.00;;;;2059754;28;20207;-76
2021/07/01 04:47:40;;;;;;;4.43;3.27;;;;;24.00;100274.00;;;;2051575;28;20287;-76
2021/07/01 04:48:41;;;;;;;4.80;3.70;;;;;24.00;100270.00;;;;2048051;28;20743;-76
2021/07/01 04:49:41;;;;;;;4.22;3.90;;;;;24.00;100270.00;;;;2051662;28;20216;-77
2021/07/01 04:50:41;;;;;;;3.63;3.30;;;;;24.00;100271.00;;;;2061388;28;20233;-78
2021/07/01 04:51:42;;;;;;;4.23;3.57;;;;;24.00;100277.00;;;;2059498;28;20219;-77
2021/07/01 04:52:42;;;;;;;4.40;4.00;;;;;24.00;100268.00;;;;2059220;28;20270;-78
2021/07/01 04:53:43;;;;;;;5.80;4.07;;;;;24.00;100277.00;;;;2060035;28;20262;-76
2021/07/01 04:54:43;;;;;;;4.00;3.53;;;;;24.00;100276.00;;;;2059960;28;20223;-76
2021/07/01 04:55:43;;;;;;;5.43;3.77;;;;;24.00;100275.00;;;;2060263;28;20215;-76
2021/07/01 04:56:44;;;;;;;3.70;3.40;;;;;24.00;100277.00;;;;2063917;28;20562;-76
2021/07/01 04:57:44;;;;;;;4.20;3.60;;;;;24.00;100272.00;;;;2069008;28;20744;-76
2021/07/01 04:58:45;;;;;;;5.20;3.60;;;;;24.00;100273.00;;;;2057702;28;21675;-73
2021/07/01 04:59:45;;;;;;;4.30;3.83;;;;;24.00;100277.00;;;;2058315;28;20234;-76
2021/07/01 05:00:47;;;;;;;4.33;3.80;;;;;24.00;100275.00;;;;2043995;28;20949;-76